sensor_id;sensor_type;location;lat;lon;timestamp;P1;P2;P0
76679;PMS5003;65597;51.520;-0.224;2023-04-06T00:00:16;24;23;
76679;PMS5003;65597;51.520;-0.224;2023-04-06T00:02:41;30;26;
76679;PMS5003;65597;51.520;-0.224;2023-04-06T00:05:07;17;17;
76679;PMS5003;65597;51.520;-0.224;2023-04-06T00:07:33;20;20;
76679;PMS5003;65597;51.520;-0.224;2023-04-06T00:09:58;22;22;
76679;PMS5003;65597;51.520;-0.224;2023-04-06T00:12:23;19;18;
76679;PMS5003;65597;51.520;-0.224;2023-04-06T00:14:48;22;22;
76679;PMS5003;65597;51.520;-0.224;2023-04-06T00:17:19;23;20;
76679;PMS5003;65597;51.520;-0.224;2023-04-06T00:19:39;22;20;
76679;PMS5003;65597;51.520;-0.224;2023-04-06T00:22:04;19;19;
76679;PMS5003;65597;51.520;-0.224;2023-04-06T00:24:30;17;16;
76679;PMS5003;65597;51.520;-0.224;2023-04-06T00:26:55;18;17;
76679;PMS5003;65597;51.520;-0.224;2023-04-06T00:29:21;18;17;
76679;PMS5003;65597;51.520;-0.224;2023-04-06T00:31:46;20;18;
76679;PMS5003;65597;51.520;-0.224;2023-04-06T00:34:11;20;18;
76679;PMS5003;65597;51.520;-0.224;2023-04-06T00:36:37;17;15;
76679;PMS5003;65597;51.520;-0.224;2023-04-06T00:39:02;20;15;
76679;PMS5003;65597;51.520;-0.224;2023-04-06T00:41:27;16;15;
76679;PMS5003;65597;51.520;-0.224;2023-04-06T00:43:54;16;15;
76679;PMS5003;65597;51.520;-0.224;2023-04-06T00:46:18;16;16;
76679;PMS5003;65597;51.520;-0.224;2023-04-06T00:48:44;16;15;
76679;PMS5003;65597;51.520;-0.224;2023-04-06T00:51:09;15;14;
76679;PMS5003;65597;51.520;-0.224;2023-04-06T00:53:34;15;14;
76679;PMS5003;65597;51.520;-0.224;2023-04-06T00:56:00;12;12;
76679;PMS5003;65597;51.520;-0.224;2023-04-06T00:58:25;14;12;
76679;PMS5003;65597;51.520;-0.224;2023-04-06T01:00:51;11;11;
76679;PMS5003;65597;51.520;-0.224;2023-04-06T01:03:16;16;16;
76679;PMS5003;65597;51.520;-0.224;2023-04-06T01:05:42;18;15;
76679;PMS5003;65597;51.520;-0.224;2023-04-06T01:08:07;14;13;
76679;PMS5003;65597;51.520;-0.224;2023-04-06T01:10:33;12;12;
76679;PMS5003;65597;51.520;-0.224;2023-04-06T01:12:58;14;14;
76679;PMS5003;65597;51.520;-0.224;2023-04-06T01:15:24;17;15;
76679;PMS5003;65597;51.520;-0.224;2023-04-06T01:17:49;14;14;
76679;PMS5003;65597;51.520;-0.224;2023-04-06T01:20:15;13;13;
76679;PMS5003;65597;51.520;-0.224;2023-04-06T01:22:40;13;13;
76679;PMS5003;65597;51.520;-0.224;2023-04-06T01:25:06;12;12;
76679;PMS5003;65597;51.520;-0.224;2023-04-06T01:27:31;12;12;
76679;PMS5003;65597;51.520;-0.224;2023-04-06T01:29:57;12;12;
76679;PMS5003;65597;51.520;-0.224;2023-04-06T01:32:24;13;13;
76679;PMS5003;65597;51.520;-0.224;2023-04-06T01:34:47;14;14;
76679;PMS5003;65597;51.520;-0.224;2023-04-06T01:37:13;14;14;
76679;PMS5003;65597;51.520;-0.224;2023-04-06T01:39:38;10;10;
76679;PMS5003;65597;51.520;-0.224;2023-04-06T01:42:04;12;12;
76679;PMS5003;65597;51.520;-0.224;2023-04-06T01:44:30;10;10;
76679;PMS5003;65597;51.520;-0.224;2023-04-06T01:46:55;12;12;
76679;PMS5003;65597;51.520;-0.224;2023-04-06T01:49:20;11;11;
76679;PMS5003;65597;51.520;-0.224;2023-04-06T01:51:46;12;11;
76679;PMS5003;65597;51.520;-0.224;2023-04-06T01:54:11;12;11;
76679;PMS5003;65597;51.520;-0.224;2023-04-06T01:56:38;10;10;
76679;PMS5003;65597;51.520;-0.224;2023-04-06T01:59:02;10;9;
76679;PMS5003;65597;51.520;-0.224;2023-04-06T02:01:28;11;11;
76679;PMS5003;65597;51.520;-0.224;2023-04-06T02:03:53;11;11;
76679;PMS5003;65597;51.520;-0.224;2023-04-06T02:06:19;11;11;
76679;PMS5003;65597;51.520;-0.224;2023-04-06T02:08:44;10;10;
76679;PMS5003;65597;51.520;-0.224;2023-04-06T02:11:10;9;9;
76679;PMS5003;65597;51.520;-0.224;2023-04-06T02:13:45;12;12;
76679;PMS5003;65597;51.520;-0.224;2023-04-06T02:16:01;11;11;
76679;PMS5003;65597;51.520;-0.224;2023-04-06T02:18:26;12;12;
76679;PMS5003;65597;51.520;-0.224;2023-04-06T02:20:53;12;12;
76679;PMS5003;65597;51.520;-0.224;2023-04-06T02:23:17;11;11;
76679;PMS5003;65597;51.520;-0.224;2023-04-06T02:25:42;10;10;
76679;PMS5003;65597;51.520;-0.224;2023-04-06T02:28:08;10;10;
76679;PMS5003;65597;51.520;-0.224;2023-04-06T02:30:33;10;10;
76679;PMS5003;65597;51.520;-0.224;2023-04-06T02:32:59;9;9;
76679;PMS5003;65597;51.520;-0.224;2023-04-06T02:35:25;13;11;
76679;PMS5003;65597;51.520;-0.224;2023-04-06T02:37:49;9;9;
76679;PMS5003;65597;51.520;-0.224;2023-04-06T02:40:14;10;10;
76679;PMS5003;65597;51.520;-0.224;2023-04-06T02:42:40;9;9;
76679;PMS5003;65597;51.520;-0.224;2023-04-06T02:45:06;11;11;
76679;PMS5003;65597;51.520;-0.224;2023-04-06T02:47:31;9;8;
76679;PMS5003;65597;51.520;-0.224;2023-04-06T02:49:56;8;8;
76679;PMS5003;65597;51.520;-0.224;2023-04-06T02:52:22;10;10;
76679;PMS5003;65597;51.520;-0.224;2023-04-06T02:54:47;13;13;
76679;PMS5003;65597;51.520;-0.224;2023-04-06T02:57:13;9;8;
76679;PMS5003;65597;51.520;-0.224;2023-04-06T02:59:38;9;9;
76679;PMS5003;65597;51.520;-0.224;2023-04-06T03:02:04;8;8;
76679;PMS5003;65597;51.520;-0.224;2023-04-06T03:04:29;9;9;
76679;PMS5003;65597;51.520;-0.224;2023-04-06T03:06:55;8;8;
76679;PMS5003;65597;51.520;-0.224;2023-04-06T03:09:21;8;8;
76679;PMS5003;65597;51.520;-0.224;2023-04-06T03:11:46;8;8;
76679;PMS5003;65597;51.520;-0.224;2023-04-06T03:14:11;8;8;
76679;PMS5003;65597;51.520;-0.224;2023-04-06T03:16:36;11;11;
76679;PMS5003;65597;51.520;-0.224;2023-04-06T03:19:02;7;7;
76679;PMS5003;65597;51.520;-0.224;2023-04-06T03:21:29;8;8;
76679;PMS5003;65597;51.520;-0.224;2023-04-06T03:23:53;8;8;
76679;PMS5003;65597;51.520;-0.224;2023-04-06T03:26:18;9;9;
76679;PMS5003;65597;51.520;-0.224;2023-04-06T03:28:44;10;10;
76679;PMS5003;65597;51.520;-0.224;2023-04-06T03:31:09;10;10;
76679;PMS5003;65597;51.520;-0.224;2023-04-06T03:33:36;10;10;
76679;PMS5003;65597;51.520;-0.224;2023-04-06T03:36:00;10;10;
76679;PMS5003;65597;51.520;-0.224;2023-04-06T03:38:26;11;11;
76679;PMS5003;65597;51.520;-0.224;2023-04-06T03:40:56;8;8;
76679;PMS5003;65597;51.520;-0.224;2023-04-06T03:43:17;10;10;
76679;PMS5003;65597;51.520;-0.224;2023-04-06T03:45:42;10;9;
76679;PMS5003;65597;51.520;-0.224;2023-04-06T03:48:08;10;10;
76679;PMS5003;65597;51.520;-0.224;2023-04-06T03:50:33;10;10;
76679;PMS5003;65597;51.520;-0.224;2023-04-06T03:52:59;8;8;
76679;PMS5003;65597;51.520;-0.224;2023-04-06T03:55:24;10;10;
76679;PMS5003;65597;51.520;-0.224;2023-04-06T03:57:51;11;11;
76679;PMS5003;65597;51.520;-0.224;2023-04-06T04:00:15;9;9;
76679;PMS5003;65597;51.520;-0.224;2023-04-06T04:02:41;9;9;
76679;PMS5003;65597;51.520;-0.224;2023-04-06T04:05:06;14;12;
76679;PMS5003;65597;51.520;-0.224;2023-04-06T04:07:32;10;10;
76679;PMS5003;65597;51.520;-0.224;2023-04-06T04:09:59;12;11;
76679;PMS5003;65597;51.520;-0.224;2023-04-06T04:12:23;12;12;
76679;PMS5003;65597;51.520;-0.224;2023-04-06T04:14:48;12;12;
76679;PMS5003;65597;51.520;-0.224;2023-04-06T04:17:13;10;9;
76679;PMS5003;65597;51.520;-0.224;2023-04-06T04:19:39;9;9;
76679;PMS5003;65597;51.520;-0.224;2023-04-06T04:22:05;10;9;
76679;PMS5003;65597;51.520;-0.224;2023-04-06T04:24:29;10;10;
76679;PMS5003;65597;51.520;-0.224;2023-04-06T04:26:55;11;11;
76679;PMS5003;65597;51.520;-0.224;2023-04-06T04:29:20;11;11;
76679;PMS5003;65597;51.520;-0.224;2023-04-06T04:31:45;11;11;
76679;PMS5003;65597;51.520;-0.224;2023-04-06T04:34:11;10;10;
76679;PMS5003;65597;51.520;-0.224;2023-04-06T04:36:36;12;11;
76679;PMS5003;65597;51.520;-0.224;2023-04-06T04:39:02;12;9;
76679;PMS5003;65597;51.520;-0.224;2023-04-06T04:41:27;10;10;
76679;PMS5003;65597;51.520;-0.224;2023-04-06T04:43:52;13;10;
76679;PMS5003;65597;51.520;-0.224;2023-04-06T04:46:20;12;12;
76679;PMS5003;65597;51.520;-0.224;2023-04-06T04:48:43;12;12;
76679;PMS5003;65597;51.520;-0.224;2023-04-06T04:51:08;12;10;
76679;PMS5003;65597;51.520;-0.224;2023-04-06T04:53:33;11;11;
76679;PMS5003;65597;51.520;-0.224;2023-04-06T04:55:59;10;10;
76679;PMS5003;65597;51.520;-0.224;2023-04-06T04:58:25;11;11;
76679;PMS5003;65597;51.520;-0.224;2023-04-06T05:00:50;11;11;
76679;PMS5003;65597;51.520;-0.224;2023-04-06T05:03:18;11;11;
76679;PMS5003;65597;51.520;-0.224;2023-04-06T05:05:40;12;12;
76679;PMS5003;65597;51.520;-0.224;2023-04-06T05:08:06;13;13;
76679;PMS5003;65597;51.520;-0.224;2023-04-06T05:10:33;14;13;
76679;PMS5003;65597;51.520;-0.224;2023-04-06T05:12:57;15;15;
76679;PMS5003;65597;51.520;-0.224;2023-04-06T05:15:22;14;14;
76679;PMS5003;65597;51.520;-0.224;2023-04-06T05:17:47;20;17;
76679;PMS5003;65597;51.520;-0.224;2023-04-06T05:20:13;13;13;
76679;PMS5003;65597;51.520;-0.224;2023-04-06T05:22:45;11;11;
76679;PMS5003;65597;51.520;-0.224;2023-04-06T05:25:09;14;13;
76679;PMS5003;65597;51.520;-0.224;2023-04-06T05:27:29;15;14;
76679;PMS5003;65597;51.520;-0.224;2023-04-06T05:29:55;12;12;
76679;PMS5003;65597;51.520;-0.224;2023-04-06T05:32:20;15;14;
76679;PMS5003;65597;51.520;-0.224;2023-04-06T05:34:46;15;14;
76679;PMS5003;65597;51.520;-0.224;2023-04-06T05:37:11;16;15;
76679;PMS5003;65597;51.520;-0.224;2023-04-06T05:39:36;13;13;
76679;PMS5003;65597;51.520;-0.224;2023-04-06T05:42:03;22;17;
76679;PMS5003;65597;51.520;-0.224;2023-04-06T05:44:27;13;13;
76679;PMS5003;65597;51.520;-0.224;2023-04-06T05:46:54;16;16;
76679;PMS5003;65597;51.520;-0.224;2023-04-06T05:49:18;20;15;
76679;PMS5003;65597;51.520;-0.224;2023-04-06T05:51:44;15;14;
76679;PMS5003;65597;51.520;-0.224;2023-04-06T05:54:09;14;14;
76679;PMS5003;65597;51.520;-0.224;2023-04-06T05:56:34;19;17;
76679;PMS5003;65597;51.520;-0.224;2023-04-06T05:59:01;20;17;
76679;PMS5003;65597;51.520;-0.224;2023-04-06T06:01:25;21;18;
76679;PMS5003;65597;51.520;-0.224;2023-04-06T06:03:50;21;18;
76679;PMS5003;65597;51.520;-0.224;2023-04-06T06:06:16;15;15;
76679;PMS5003;65597;51.520;-0.224;2023-04-06T06:08:41;14;14;
76679;PMS5003;65597;51.520;-0.224;2023-04-06T06:11:08;18;16;
76679;PMS5003;65597;51.520;-0.224;2023-04-06T06:13:32;14;14;
76679;PMS5003;65597;51.520;-0.224;2023-04-06T06:15:57;16;15;
76679;PMS5003;65597;51.520;-0.224;2023-04-06T06:18:22;13;13;
76679;PMS5003;65597;51.520;-0.224;2023-04-06T06:20:48;16;16;
76679;PMS5003;65597;51.520;-0.224;2023-04-06T06:23:15;18;15;
76679;PMS5003;65597;51.520;-0.224;2023-04-06T06:25:39;15;15;
76679;PMS5003;65597;51.520;-0.224;2023-04-06T06:28:04;15;15;
76679;PMS5003;65597;51.520;-0.224;2023-04-06T06:30:30;17;16;
76679;PMS5003;65597;51.520;-0.224;2023-04-06T06:32:55;20;20;
76679;PMS5003;65597;51.520;-0.224;2023-04-06T06:35:21;13;13;
76679;PMS5003;65597;51.520;-0.224;2023-04-06T06:37:46;16;15;
76679;PMS5003;65597;51.520;-0.224;2023-04-06T06:40:12;16;15;
76679;PMS5003;65597;51.520;-0.224;2023-04-06T06:42:37;15;13;
76679;PMS5003;65597;51.520;-0.224;2023-04-06T06:45:02;14;14;
76679;PMS5003;65597;51.520;-0.224;2023-04-06T06:47:29;15;14;
76679;PMS5003;65597;51.520;-0.224;2023-04-06T06:49:53;12;12;
76679;PMS5003;65597;51.520;-0.224;2023-04-06T06:52:19;13;12;
76679;PMS5003;65597;51.520;-0.224;2023-04-06T06:54:45;15;13;
76679;PMS5003;65597;51.520;-0.224;2023-04-06T06:57:10;16;15;
76679;PMS5003;65597;51.520;-0.224;2023-04-06T06:59:38;21;17;
76679;PMS5003;65597;51.520;-0.224;2023-04-06T07:02:01;17;14;
76679;PMS5003;65597;51.520;-0.224;2023-04-06T07:04:27;12;12;
76679;PMS5003;65597;51.520;-0.224;2023-04-06T07:06:52;16;15;
76679;PMS5003;65597;51.520;-0.224;2023-04-06T07:09:17;15;15;
76679;PMS5003;65597;51.520;-0.224;2023-04-06T07:11:45;17;16;
76679;PMS5003;65597;51.520;-0.224;2023-04-06T07:14:09;19;18;
76679;PMS5003;65597;51.520;-0.224;2023-04-06T07:16:35;12;12;
76679;PMS5003;65597;51.520;-0.224;2023-04-06T07:19:00;14;12;
76679;PMS5003;65597;51.520;-0.224;2023-04-06T07:21:25;10;10;
76679;PMS5003;65597;51.520;-0.224;2023-04-06T07:23:52;18;16;
76679;PMS5003;65597;51.520;-0.224;2023-04-06T07:26:17;11;11;
76679;PMS5003;65597;51.520;-0.224;2023-04-06T07:28:42;11;11;
76679;PMS5003;65597;51.520;-0.224;2023-04-06T07:31:08;10;10;
76679;PMS5003;65597;51.520;-0.224;2023-04-06T07:33:33;11;11;
76679;PMS5003;65597;51.520;-0.224;2023-04-06T07:35:58;14;10;
76679;PMS5003;65597;51.520;-0.224;2023-04-06T07:38:24;10;10;
76679;PMS5003;65597;51.520;-0.224;2023-04-06T07:40:49;11;10;
76679;PMS5003;65597;51.520;-0.224;2023-04-06T07:43:15;11;10;
76679;PMS5003;65597;51.520;-0.224;2023-04-06T07:45:40;10;9;
76679;PMS5003;65597;51.520;-0.224;2023-04-06T07:48:06;15;11;
76679;PMS5003;65597;51.520;-0.224;2023-04-06T07:50:31;9;9;
76679;PMS5003;65597;51.520;-0.224;2023-04-06T07:52:56;10;9;
76679;PMS5003;65597;51.520;-0.224;2023-04-06T07:55:22;7;6;
76679;PMS5003;65597;51.520;-0.224;2023-04-06T07:57:47;9;8;
76679;PMS5003;65597;51.520;-0.224;2023-04-06T08:00:13;5;5;
76679;PMS5003;65597;51.520;-0.224;2023-04-06T08:02:38;5;5;
76679;PMS5003;65597;51.520;-0.224;2023-04-06T08:05:04;5;5;
76679;PMS5003;65597;51.520;-0.224;2023-04-06T08:07:29;5;5;
76679;PMS5003;65597;51.520;-0.224;2023-04-06T08:09:55;5;5;
76679;PMS5003;65597;51.520;-0.224;2023-04-06T08:12:21;3;3;
76679;PMS5003;65597;51.520;-0.224;2023-04-06T08:14:45;3;3;
76679;PMS5003;65597;51.520;-0.224;2023-04-06T08:17:11;2;2;
76679;PMS5003;65597;51.520;-0.224;2023-04-06T08:19:36;6;5;
76679;PMS5003;65597;51.520;-0.224;2023-04-06T08:22:01;4;4;
76679;PMS5003;65597;51.520;-0.224;2023-04-06T08:24:27;3;3;
76679;PMS5003;65597;51.520;-0.224;2023-04-06T08:26:52;3;2;
76679;PMS5003;65597;51.520;-0.224;2023-04-06T08:29:18;3;3;
76679;PMS5003;65597;51.520;-0.224;2023-04-06T08:31:43;6;5;
76679;PMS5003;65597;51.520;-0.224;2023-04-06T08:34:08;3;3;
76679;PMS5003;65597;51.520;-0.224;2023-04-06T08:36:35;6;6;
76679;PMS5003;65597;51.520;-0.224;2023-04-06T08:38:59;6;4;
76679;PMS5003;65597;51.520;-0.224;2023-04-06T08:41:24;6;5;
76679;PMS5003;65597;51.520;-0.224;2023-04-06T08:43:51;4;4;
76679;PMS5003;65597;51.520;-0.224;2023-04-06T08:46:15;8;5;
76679;PMS5003;65597;51.520;-0.224;2023-04-06T08:48:42;5;4;
76679;PMS5003;65597;51.520;-0.224;2023-04-06T08:51:06;7;5;
76679;PMS5003;65597;51.520;-0.224;2023-04-06T08:53:31;6;3;
76679;PMS5003;65597;51.520;-0.224;2023-04-06T08:55:57;5;4;
76679;PMS5003;65597;51.520;-0.224;2023-04-06T08:58:22;6;4;
76679;PMS5003;65597;51.520;-0.224;2023-04-06T09:00:49;6;5;
76679;PMS5003;65597;51.520;-0.224;2023-04-06T09:03:13;6;4;
76679;PMS5003;65597;51.520;-0.224;2023-04-06T09:05:38;11;7;
76679;PMS5003;65597;51.520;-0.224;2023-04-06T09:08:04;3;3;
76679;PMS5003;65597;51.520;-0.224;2023-04-06T09:10:29;9;8;
76679;PMS5003;65597;51.520;-0.224;2023-04-06T09:15:21;7;5;
76679;PMS5003;65597;51.520;-0.224;2023-04-06T09:17:46;8;5;
76679;PMS5003;65597;51.520;-0.224;2023-04-06T09:20:12;8;7;
76679;PMS5003;65597;51.520;-0.224;2023-04-06T09:22:37;7;6;
76679;PMS5003;65597;51.520;-0.224;2023-04-06T09:25:02;8;7;
76679;PMS5003;65597;51.520;-0.224;2023-04-06T09:27:29;7;6;
76679;PMS5003;65597;51.520;-0.224;2023-04-06T09:30:02;5;5;
76679;PMS5003;65597;51.520;-0.224;2023-04-06T09:32:19;5;5;
76679;PMS5003;65597;51.520;-0.224;2023-04-06T09:34:44;8;7;
76679;PMS5003;65597;51.520;-0.224;2023-04-06T09:37:12;7;6;
76679;PMS5003;65597;51.520;-0.224;2023-04-06T09:39:35;4;4;
76679;PMS5003;65597;51.520;-0.224;2023-04-06T09:42:00;5;5;
76679;PMS5003;65597;51.520;-0.224;2023-04-06T09:44:26;11;6;
76679;PMS5003;65597;51.520;-0.224;2023-04-06T09:46:51;6;4;
76679;PMS5003;65597;51.520;-0.224;2023-04-06T09:49:16;5;4;
76679;PMS5003;65597;51.520;-0.224;2023-04-06T09:51:44;6;6;
76679;PMS5003;65597;51.520;-0.224;2023-04-06T09:54:07;6;4;
76679;PMS5003;65597;51.520;-0.224;2023-04-06T09:56:37;4;3;
76679;PMS5003;65597;51.520;-0.224;2023-04-06T09:59:01;4;4;
76679;PMS5003;65597;51.520;-0.224;2023-04-06T10:01:25;7;5;
76679;PMS5003;65597;51.520;-0.224;2023-04-06T10:03:50;4;4;
76679;PMS5003;65597;51.520;-0.224;2023-04-06T10:06:14;3;3;
76679;PMS5003;65597;51.520;-0.224;2023-04-06T10:08:40;4;4;
76679;PMS5003;65597;51.520;-0.224;2023-04-06T10:11:05;7;5;
76679;PMS5003;65597;51.520;-0.224;2023-04-06T10:13:32;5;5;
76679;PMS5003;65597;51.520;-0.224;2023-04-06T10:15:56;5;3;
76679;PMS5003;65597;51.520;-0.224;2023-04-06T10:18:21;4;4;
76679;PMS5003;65597;51.520;-0.224;2023-04-06T10:20:48;6;5;
76679;PMS5003;65597;51.520;-0.224;2023-04-06T10:23:13;7;5;
76679;PMS5003;65597;51.520;-0.224;2023-04-06T10:25:39;5;5;
76679;PMS5003;65597;51.520;-0.224;2023-04-06T10:28:05;3;2;
76679;PMS5003;65597;51.520;-0.224;2023-04-06T10:30:29;4;4;
76679;PMS5003;65597;51.520;-0.224;2023-04-06T10:32:54;3;3;
76679;PMS5003;65597;51.520;-0.224;2023-04-06T10:35:20;3;3;
76679;PMS5003;65597;51.520;-0.224;2023-04-06T10:37:46;3;3;
76679;PMS5003;65597;51.520;-0.224;2023-04-06T10:42:36;6;4;
76679;PMS5003;65597;51.520;-0.224;2023-04-06T10:45:01;5;4;
76679;PMS5003;65597;51.520;-0.224;2023-04-06T10:47:27;5;4;
76679;PMS5003;65597;51.520;-0.224;2023-04-06T10:49:52;6;5;
76679;PMS5003;65597;51.520;-0.224;2023-04-06T10:52:18;6;4;
76679;PMS5003;65597;51.520;-0.224;2023-04-06T10:54:43;5;4;
76679;PMS5003;65597;51.520;-0.224;2023-04-06T10:57:09;5;5;
76679;PMS5003;65597;51.520;-0.224;2023-04-06T10:59:34;5;3;
76679;PMS5003;65597;51.520;-0.224;2023-04-06T11:01:59;4;4;
76679;PMS5003;65597;51.520;-0.224;2023-04-06T11:04:26;3;3;
76679;PMS5003;65597;51.520;-0.224;2023-04-06T11:06:50;4;4;
76679;PMS5003;65597;51.520;-0.224;2023-04-06T11:09:24;5;5;
76679;PMS5003;65597;51.520;-0.224;2023-04-06T11:11:41;5;4;
76679;PMS5003;65597;51.520;-0.224;2023-04-06T11:14:09;4;3;
76679;PMS5003;65597;51.520;-0.224;2023-04-06T11:16:32;5;4;
76679;PMS5003;65597;51.520;-0.224;2023-04-06T11:18:58;5;5;
76679;PMS5003;65597;51.520;-0.224;2023-04-06T11:21:32;5;4;
76679;PMS5003;65597;51.520;-0.224;2023-04-06T11:23:48;6;5;
76679;PMS5003;65597;51.520;-0.224;2023-04-06T11:26:15;3;3;
76679;PMS5003;65597;51.520;-0.224;2023-04-06T11:28:39;3;3;
76679;PMS5003;65597;51.520;-0.224;2023-04-06T11:31:05;1;1;
76679;PMS5003;65597;51.520;-0.224;2023-04-06T11:33:34;4;3;
76679;PMS5003;65597;51.520;-0.224;2023-04-06T11:35:56;4;3;
76679;PMS5003;65597;51.520;-0.224;2023-04-06T11:38:21;3;3;
76679;PMS5003;65597;51.520;-0.224;2023-04-06T11:40:46;3;3;
76679;PMS5003;65597;51.520;-0.224;2023-04-06T11:43:11;5;4;
76679;PMS5003;65597;51.520;-0.224;2023-04-06T11:45:41;3;3;
76679;PMS5003;65597;51.520;-0.224;2023-04-06T11:48:02;6;4;
76679;PMS5003;65597;51.520;-0.224;2023-04-06T11:50:31;4;3;
76679;PMS5003;65597;51.520;-0.224;2023-04-06T11:52:58;4;3;
76679;PMS5003;65597;51.520;-0.224;2023-04-06T11:55:18;4;2;
76679;PMS5003;65597;51.520;-0.224;2023-04-06T11:57:44;2;2;
76679;PMS5003;65597;51.520;-0.224;2023-04-06T12:00:10;2;1;
76679;PMS5003;65597;51.520;-0.224;2023-04-06T12:02:35;2;2;
76679;PMS5003;65597;51.520;-0.224;2023-04-06T12:05:00;2;2;
76679;PMS5003;65597;51.520;-0.224;2023-04-06T12:07:26;2;2;
76679;PMS5003;65597;51.520;-0.224;2023-04-06T12:09:51;2;2;
76679;PMS5003;65597;51.520;-0.224;2023-04-06T12:12:16;2;2;
76679;PMS5003;65597;51.520;-0.224;2023-04-06T12:14:42;1;0;
76679;PMS5003;65597;51.520;-0.224;2023-04-06T12:17:07;3;0;
76679;PMS5003;65597;51.520;-0.224;2023-04-06T12:19:32;1;1;
76679;PMS5003;65597;51.520;-0.224;2023-04-06T12:21:58;2;2;
76679;PMS5003;65597;51.520;-0.224;2023-04-06T12:24:23;2;2;
76679;PMS5003;65597;51.520;-0.224;2023-04-06T12:26:50;2;1;
76679;PMS5003;65597;51.520;-0.224;2023-04-06T12:29:14;2;1;
76679;PMS5003;65597;51.520;-0.224;2023-04-06T12:31:39;1;0;
76679;PMS5003;65597;51.520;-0.224;2023-04-06T12:34:05;1;1;
76679;PMS5003;65597;51.520;-0.224;2023-04-06T12:36:30;1;0;
76679;PMS5003;65597;51.520;-0.224;2023-04-06T12:38:57;0;0;
76679;PMS5003;65597;51.520;-0.224;2023-04-06T12:41:21;1;1;
76679;PMS5003;65597;51.520;-0.224;2023-04-06T12:43:46;0;0;
76679;PMS5003;65597;51.520;-0.224;2023-04-06T12:46:12;2;2;
76679;PMS5003;65597;51.520;-0.224;2023-04-06T12:48:37;2;1;
76679;PMS5003;65597;51.520;-0.224;2023-04-06T12:51:03;1;1;
76679;PMS5003;65597;51.520;-0.224;2023-04-06T12:53:28;2;2;
76679;PMS5003;65597;51.520;-0.224;2023-04-06T12:55:54;1;1;
76679;PMS5003;65597;51.520;-0.224;2023-04-06T12:58:19;1;1;
76679;PMS5003;65597;51.520;-0.224;2023-04-06T13:00:44;2;1;
76679;PMS5003;65597;51.520;-0.224;2023-04-06T13:03:11;1;1;
76679;PMS5003;65597;51.520;-0.224;2023-04-06T13:05:35;1;1;
76679;PMS5003;65597;51.520;-0.224;2023-04-06T13:08:00;1;1;
76679;PMS5003;65597;51.520;-0.224;2023-04-06T13:10:26;2;2;
76679;PMS5003;65597;51.520;-0.224;2023-04-06T13:12:51;2;2;
76679;PMS5003;65597;51.520;-0.224;2023-04-06T13:15:17;1;1;
76679;PMS5003;65597;51.520;-0.224;2023-04-06T13:17:42;1;1;
76679;PMS5003;65597;51.520;-0.224;2023-04-06T13:20:08;3;3;
76679;PMS5003;65597;51.520;-0.224;2023-04-06T13:22:33;2;2;
76679;PMS5003;65597;51.520;-0.224;2023-04-06T13:24:58;1;1;
76679;PMS5003;65597;51.520;-0.224;2023-04-06T13:27:25;0;0;
76679;PMS5003;65597;51.520;-0.224;2023-04-06T13:29:49;2;2;
76679;PMS5003;65597;51.520;-0.224;2023-04-06T13:32:14;1;1;
76679;PMS5003;65597;51.520;-0.224;2023-04-06T13:34:40;2;1;
76679;PMS5003;65597;51.520;-0.224;2023-04-06T13:37:05;1;1;
76679;PMS5003;65597;51.520;-0.224;2023-04-06T13:39:32;1;1;
76679;PMS5003;65597;51.520;-0.224;2023-04-06T13:41:56;2;2;
76679;PMS5003;65597;51.520;-0.224;2023-04-06T13:44:21;1;1;
76679;PMS5003;65597;51.520;-0.224;2023-04-06T13:46:47;2;2;
76679;PMS5003;65597;51.520;-0.224;2023-04-06T13:49:12;2;2;
76679;PMS5003;65597;51.520;-0.224;2023-04-06T13:51:38;1;1;
76679;PMS5003;65597;51.520;-0.224;2023-04-06T13:54:03;3;1;
76679;PMS5003;65597;51.520;-0.224;2023-04-06T13:56:28;2;2;
76679;PMS5003;65597;51.520;-0.224;2023-04-06T13:58:54;1;1;
76679;PMS5003;65597;51.520;-0.224;2023-04-06T14:01:19;1;1;
76679;PMS5003;65597;51.520;-0.224;2023-04-06T14:03:46;0;0;
76679;PMS5003;65597;51.520;-0.224;2023-04-06T14:06:11;1;1;
76679;PMS5003;65597;51.520;-0.224;2023-04-06T14:08:36;3;1;
76679;PMS5003;65597;51.520;-0.224;2023-04-06T14:11:01;2;2;
76679;PMS5003;65597;51.520;-0.224;2023-04-06T14:13:26;3;3;
76679;PMS5003;65597;51.520;-0.224;2023-04-06T14:15:53;3;2;
76679;PMS5003;65597;51.520;-0.224;2023-04-06T14:18:17;2;2;
76679;PMS5003;65597;51.520;-0.224;2023-04-06T14:20:42;4;2;
76679;PMS5003;65597;51.520;-0.224;2023-04-06T14:23:08;2;1;
76679;PMS5003;65597;51.520;-0.224;2023-04-06T14:25:33;1;1;
76679;PMS5003;65597;51.520;-0.224;2023-04-06T14:28:00;4;3;
76679;PMS5003;65597;51.520;-0.224;2023-04-06T14:30:24;2;2;
76679;PMS5003;65597;51.520;-0.224;2023-04-06T14:32:50;1;1;
76679;PMS5003;65597;51.520;-0.224;2023-04-06T14:35:15;1;1;
76679;PMS5003;65597;51.520;-0.224;2023-04-06T14:37:41;1;1;
76679;PMS5003;65597;51.520;-0.224;2023-04-06T14:40:07;2;2;
76679;PMS5003;65597;51.520;-0.224;2023-04-06T14:42:31;4;3;
76679;PMS5003;65597;51.520;-0.224;2023-04-06T14:44:57;2;2;
76679;PMS5003;65597;51.520;-0.224;2023-04-06T14:47:22;3;3;
76679;PMS5003;65597;51.520;-0.224;2023-04-06T14:49:48;2;2;
76679;PMS5003;65597;51.520;-0.224;2023-04-06T14:52:13;4;2;
76679;PMS5003;65597;51.520;-0.224;2023-04-06T14:54:38;5;2;
76679;PMS5003;65597;51.520;-0.224;2023-04-06T14:57:04;2;2;
76679;PMS5003;65597;51.520;-0.224;2023-04-06T14:59:29;1;1;
76679;PMS5003;65597;51.520;-0.224;2023-04-06T15:01:55;3;3;
76679;PMS5003;65597;51.520;-0.224;2023-04-06T15:04:20;2;2;
76679;PMS5003;65597;51.520;-0.224;2023-04-06T15:06:46;1;1;
76679;PMS5003;65597;51.520;-0.224;2023-04-06T15:09:11;2;2;
76679;PMS5003;65597;51.520;-0.224;2023-04-06T15:11:37;6;3;
76679;PMS5003;65597;51.520;-0.224;2023-04-06T15:14:02;2;2;
76679;PMS5003;65597;51.520;-0.224;2023-04-06T15:16:29;3;3;
76679;PMS5003;65597;51.520;-0.224;2023-04-06T15:18:53;4;2;
76679;PMS5003;65597;51.520;-0.224;2023-04-06T15:21:18;3;2;
76679;PMS5003;65597;51.520;-0.224;2023-04-06T15:23:44;3;2;
76679;PMS5003;65597;51.520;-0.224;2023-04-06T15:26:09;2;2;
76679;PMS5003;65597;51.520;-0.224;2023-04-06T15:28:36;1;1;
76679;PMS5003;65597;51.520;-0.224;2023-04-06T15:31:00;2;2;
76679;PMS5003;65597;51.520;-0.224;2023-04-06T15:33:26;0;0;
76679;PMS5003;65597;51.520;-0.224;2023-04-06T15:35:51;1;0;
76679;PMS5003;65597;51.520;-0.224;2023-04-06T15:38:17;1;1;
76679;PMS5003;65597;51.520;-0.224;2023-04-06T15:40:43;1;1;
76679;PMS5003;65597;51.520;-0.224;2023-04-06T15:43:08;0;0;
76679;PMS5003;65597;51.520;-0.224;2023-04-06T15:45:33;1;0;
76679;PMS5003;65597;51.520;-0.224;2023-04-06T15:47:58;1;0;
76679;PMS5003;65597;51.520;-0.224;2023-04-06T15:50:24;1;1;
76679;PMS5003;65597;51.520;-0.224;2023-04-06T15:52:52;1;1;
76679;PMS5003;65597;51.520;-0.224;2023-04-06T15:55:15;2;2;
76679;PMS5003;65597;51.520;-0.224;2023-04-06T15:57:40;0;0;
76679;PMS5003;65597;51.520;-0.224;2023-04-06T16:00:07;2;1;
76679;PMS5003;65597;51.520;-0.224;2023-04-06T16:02:31;1;1;
76679;PMS5003;65597;51.520;-0.224;2023-04-06T16:04:58;1;1;
76679;PMS5003;65597;51.520;-0.224;2023-04-06T16:07:22;2;2;
76679;PMS5003;65597;51.520;-0.224;2023-04-06T16:09:47;1;1;
76679;PMS5003;65597;51.520;-0.224;2023-04-06T16:12:13;2;2;